createdAt,value
2019-03-06T00:01:24.956Z,98.42
2019-03-06T00:04:13.750Z,98.71
2019-03-06T00:07:02.984Z,99.43
2019-03-06T00:09:53.212Z,99.48
2019-03-06T00:12:42.082Z,99.51
2019-03-06T00:15:31.361Z,98.47
2019-03-06T00:18:20.205Z,95.56
2019-03-06T00:21:09.487Z,93.78
2019-03-06T00:23:58.515Z,91.77
2019-03-06T00:26:47.729Z,92.35
2019-03-06T00:29:37.051Z,91.09
2019-03-06T00:32:26.395Z,90.70
2019-03-06T00:35:20.447Z,90.88
2019-03-06T00:38:09.574Z,90.13
2019-03-06T00:41:18.022Z,88.32
2019-03-06T00:44:07.268Z,87.32
2019-03-06T00:46:56.616Z,85.17
2019-03-06T00:49:45.762Z,83.86
2019-03-06T00:52:35.027Z,83.58
2019-03-06T00:55:24.266Z,83.61
2019-03-06T00:58:13.811Z,84.10
2019-03-06T01:01:02.767Z,84.63
2019-03-06T01:03:52.112Z,84.79
2019-03-06T01:06:41.305Z,84.90
2019-03-06T01:09:30.160Z,85.34
2019-03-06T01:12:19.451Z,85.02
2019-03-06T01:15:09.023Z,85.10
2019-03-06T01:17:58.205Z,84.64
2019-03-06T01:20:47.620Z,84.19
2019-03-06T01:23:36.647Z,83.40
2019-03-06T01:26:25.946Z,83.34
2019-03-06T01:29:15.243Z,82.90
2019-03-06T01:32:05.110Z,82.43
2019-03-06T01:35:19.410Z,82.94
2019-03-06T01:38:37.008Z,83.68
2019-03-06T01:42:03.913Z,83.20
2019-03-06T01:44:56.324Z,83.27
2019-03-06T01:47:45.311Z,83.48
2019-03-06T01:50:34.610Z,83.50
2019-03-06T01:53:27.110Z,84.02
2019-03-06T01:56:16.320Z,84.04
2019-03-06T01:59:05.883Z,84.34
2019-03-06T02:01:55.137Z,84.61
2019-03-06T02:04:44.532Z,85.51
2019-03-06T02:07:34.210Z,85.89
2019-03-06T02:10:23.313Z,86.03
2019-03-06T02:13:14.234Z,86.46
2019-03-06T02:16:03.895Z,85.96
2019-03-06T02:18:53.141Z,86.08
2019-03-06T02:21:42.774Z,86.47
2019-03-06T02:24:32.336Z,86.30
2019-03-06T02:27:21.603Z,86.34
2019-03-06T02:30:13.993Z,86.17
2019-03-06T02:33:03.089Z,85.12
2019-03-06T02:35:52.557Z,84.84
2019-03-06T02:38:41.623Z,85.19
2019-03-06T02:41:30.946Z,86.05
2019-03-06T02:44:20.135Z,87.89
2019-03-06T02:47:09.427Z,89.34
2019-03-06T02:49:58.926Z,90.49
2019-03-06T02:52:48.542Z,90.70
2019-03-06T02:55:37.786Z,92.57
2019-03-06T02:58:44.278Z,93.35
2019-03-06T03:01:47.799Z,92.22
2019-03-06T03:04:41.633Z,93.26
2019-03-06T03:07:30.853Z,93.69
2019-03-06T03:10:20.390Z,93.90
2019-03-06T03:13:09.193Z,93.67
2019-03-06T03:15:58.530Z,93.12
2019-03-06T03:18:47.683Z,93.63
2019-03-06T03:21:36.988Z,93.83
2019-03-06T03:24:26.250Z,94.26
2019-03-06T03:27:15.336Z,94.36
2019-03-06T03:30:05.689Z,93.50
2019-03-06T03:32:55.538Z,94.60
2019-03-06T03:35:45.213Z,94.48
2019-03-06T03:38:34.684Z,95.02
2019-03-06T03:41:23.390Z,95.00
2019-03-06T03:44:12.656Z,94.41
2019-03-06T03:47:01.937Z,93.91
2019-03-06T03:49:51.301Z,94.77
2019-03-06T03:52:40.686Z,95.42
2019-03-06T03:55:33.113Z,96.13
2019-03-06T03:58:22.175Z,96.80
2019-03-06T04:01:11.643Z,96.50
2019-03-06T04:04:00.679Z,97.53
2019-03-06T04:06:50.017Z,98.07
2019-03-06T04:09:39.341Z,97.34
2019-03-06T04:12:28.642Z,96.39
2019-03-06T04:15:18.868Z,95.36
2019-03-06T04:18:08.424Z,95.31
2019-03-06T04:20:57.981Z,95.53
2019-03-06T04:23:47.263Z,95.79
2019-03-06T04:26:36.563Z,97.01
2019-03-06T04:29:25.646Z,96.21
2019-03-06T04:32:14.192Z,96.84
2019-03-06T04:35:03.454Z,97.15
2019-03-06T04:37:52.743Z,97.61
2019-03-06T04:40:41.883Z,98.43
2019-03-06T04:43:31.105Z,97.72
2019-03-06T04:46:20.769Z,98.74
2019-03-06T04:49:09.831Z,99.39
2019-03-06T04:51:59.417Z,99.54
2019-03-06T04:54:48.637Z,99.79
2019-03-06T04:57:38.080Z,99.74
2019-03-06T05:00:27.614Z,100.00
2019-03-06T05:03:16.786Z,98.78
2019-03-06T05:06:06.489Z,100.00
2019-03-06T05:08:55.844Z,100.00
2019-03-06T05:11:45.363Z,100.00
2019-03-06T05:14:35.025Z,100.00
2019-03-06T05:17:52.642Z,100.00
2019-03-06T05:20:41.927Z,100.00
2019-03-06T05:23:31.181Z,99.98
2019-03-06T05:26:20.483Z,100.00
2019-03-06T05:29:09.760Z,100.00
2019-03-06T05:32:45.460Z,99.89
2019-03-06T05:36:24.139Z,100.00
2019-03-06T05:39:13.337Z,100.00
2019-03-06T05:42:03.573Z,100.00
2019-03-06T05:44:53.370Z,100.00
2019-03-06T05:47:42.698Z,100.00
2019-03-06T05:50:38.699Z,99.79
2019-03-06T05:53:30.283Z,96.33
2019-03-06T05:56:25.717Z,95.09
2019-03-06T05:59:15.359Z,94.44
2019-03-06T06:02:04.245Z,92.24
2019-03-06T06:04:53.325Z,92.44
2019-03-06T06:07:43.096Z,92.25
2019-03-06T06:10:32.375Z,90.26
2019-03-06T06:13:21.958Z,89.54
2019-03-06T06:16:10.616Z,88.60
2019-03-06T06:18:59.125Z,88.73
2019-03-06T06:22:16.466Z,86.46
2019-03-06T06:25:05.636Z,85.70
2019-03-06T06:27:55.247Z,85.59
2019-03-06T06:30:44.306Z,84.40
2019-03-06T06:33:33.759Z,84.07
2019-03-06T06:36:23.365Z,82.67
2019-03-06T06:39:12.935Z,82.59
2019-03-06T06:42:01.741Z,81.13
2019-03-06T06:44:51.094Z,79.97
2019-03-06T06:48:15.101Z,78.92
2019-03-06T06:51:46.533Z,78.08
2019-03-06T06:55:12.936Z,77.43
2019-03-06T06:58:33.217Z,76.57
2019-03-06T07:01:52.929Z,75.67
2019-03-06T07:05:33.110Z,73.40
2019-03-06T07:08:40.556Z,72.70
2019-03-06T07:11:50.660Z,72.04
2019-03-06T07:14:59.176Z,71.35
2019-03-06T07:17:57.304Z,70.20
2019-03-06T07:21:20.739Z,69.83
2019-03-06T07:24:24.945Z,69.61
2019-03-06T07:27:39.097Z,69.77
2019-03-06T07:30:37.310Z,68.67
2019-03-06T07:33:57.810Z,66.70
2019-03-06T07:36:55.531Z,65.52
2019-03-06T07:39:54.923Z,66.63
2019-03-06T07:43:01.945Z,65.05
2019-03-06T07:46:12.799Z,63.57
2019-03-06T07:49:44.761Z,63.55
2019-03-06T07:52:44.922Z,64.23
2019-03-06T07:55:50.678Z,63.23
2019-03-06T07:58:54.198Z,61.80
2019-03-06T08:02:04.558Z,62.19
2019-03-06T08:04:54.544Z,61.52
2019-03-06T08:07:44.140Z,61.18
2019-03-06T08:10:36.332Z,61.53
2019-03-06T08:13:50.293Z,60.48
2019-03-06T08:16:48.059Z,59.77
2019-03-06T08:20:02.572Z,59.45
2019-03-06T08:23:17.500Z,59.11
2019-03-06T08:26:06.959Z,58.49
2019-03-06T08:28:56.341Z,59.92
2019-03-06T08:31:54.610Z,61.01
2019-03-06T08:34:43.915Z,61.06
2019-03-06T08:37:33.633Z,61.57
2019-03-06T08:40:23.270Z,62.51
2019-03-06T08:43:12.535Z,62.26
2019-03-06T08:46:23.564Z,63.30
2019-03-06T08:49:31.587Z,63.03
2019-03-06T08:52:42.610Z,63.42
2019-03-06T08:55:54.128Z,63.45
2019-03-06T08:59:18.737Z,63.31
2019-03-06T09:02:33.464Z,61.60
2019-03-06T09:05:39.378Z,61.09
2019-03-06T09:09:02.094Z,60.83
2019-03-06T09:12:13.104Z,61.51
2019-03-06T09:15:35.579Z,60.51
2019-03-06T09:18:42.369Z,60.66
2019-03-06T09:21:49.067Z,60.65
2019-03-06T09:24:56.271Z,61.11
2019-03-06T09:28:10.630Z,61.30
2019-03-06T09:31:14.627Z,60.65
2019-03-06T09:34:22.651Z,61.76
2019-03-06T09:37:29.952Z,61.18
2019-03-06T09:40:53.756Z,60.82
2019-03-06T09:44:00.516Z,60.38
2019-03-06T09:46:59.091Z,60.50
2019-03-06T09:50:16.807Z,60.03
2019-03-06T09:53:31.540Z,60.15
2019-03-06T09:56:40.403Z,59.92
2019-03-06T09:59:34.812Z,58.34
2019-03-06T10:02:52.020Z,58.87
2019-03-06T10:06:05.951Z,58.71
2019-03-06T10:09:14.071Z,58.55
2019-03-06T10:12:28.147Z,57.99
2019-03-06T10:15:25.418Z,58.26
2019-03-06T10:18:36.614Z,59.12
2019-03-06T10:21:25.846Z,57.87
2019-03-06T10:24:15.933Z,58.41
2019-03-06T10:27:05.515Z,57.07
2019-03-06T10:29:55.012Z,57.10
2019-03-06T10:32:44.635Z,56.49
2019-03-06T10:35:34.235Z,55.99
2019-03-06T10:38:24.257Z,56.15
2019-03-06T10:41:13.546Z,56.99
2019-03-06T10:44:02.803Z,56.97
2019-03-06T10:46:52.073Z,55.37
2019-03-06T10:49:41.449Z,55.27
2019-03-06T10:52:30.276Z,55.02
2019-03-06T10:55:19.569Z,55.96
2019-03-06T10:58:08.852Z,55.84
2019-03-06T11:00:58.337Z,53.04
2019-03-06T11:04:12.551Z,53.70
2019-03-06T11:07:01.706Z,52.81
2019-03-06T11:09:50.977Z,53.37
2019-03-06T11:12:40.257Z,53.12
2019-03-06T11:15:29.600Z,52.50
2019-03-06T11:18:18.628Z,52.90
2019-03-06T11:21:08.552Z,52.17
2019-03-06T11:23:58.122Z,52.66
2019-03-06T11:26:48.240Z,51.83
2019-03-06T11:29:37.676Z,52.89
2019-03-06T11:32:27.067Z,51.90
2019-03-06T11:35:18.119Z,52.27
2019-03-06T11:38:07.963Z,50.53
2019-03-06T11:40:57.459Z,50.88
2019-03-06T11:43:46.924Z,49.92
2019-03-06T11:46:35.874Z,50.73
2019-03-06T11:49:25.200Z,49.51
2019-03-06T11:52:15.191Z,50.36
2019-03-06T11:55:07.541Z,48.75
2019-03-06T11:57:57.647Z,48.20
2019-03-06T12:00:47.303Z,48.65
2019-03-06T12:03:38.110Z,48.87
2019-03-06T12:06:27.314Z,47.82
2019-03-06T12:09:35.785Z,47.51
2019-03-06T12:12:25.030Z,47.23
2019-03-06T12:15:15.935Z,47.07
2019-03-06T12:18:05.214Z,47.03
2019-03-06T12:20:55.301Z,43.53
2019-03-06T12:23:44.253Z,44.43
2019-03-06T12:26:33.798Z,44.67
2019-03-06T12:29:24.389Z,43.88
2019-03-06T12:32:13.105Z,44.25
2019-03-06T12:35:05.207Z,43.79
2019-03-06T12:37:54.685Z,42.37
2019-03-06T12:40:44.031Z,41.94
2019-03-06T12:43:33.847Z,42.46
2019-03-06T12:46:26.733Z,42.96
2019-03-06T12:49:17.831Z,43.29
2019-03-06T12:52:07.209Z,42.05
2019-03-06T12:54:56.495Z,41.86
2019-03-06T12:57:46.055Z,41.62
2019-03-06T13:00:21.556Z,40.70
2019-03-06T13:02:52.707Z,40.88
2019-03-06T13:05:26.384Z,40.29
2019-03-06T13:07:57.339Z,40.65
2019-03-06T13:10:28.189Z,41.46
2019-03-06T13:12:59.172Z,40.44
2019-03-06T13:15:30.058Z,41.26
2019-03-06T13:18:01.006Z,40.92
2019-03-06T13:20:31.876Z,42.47
2019-03-06T13:23:04.079Z,41.61
2019-03-06T13:25:35.048Z,41.24
2019-03-06T13:28:06.001Z,40.87
2019-03-06T13:30:38.164Z,40.23
2019-03-06T13:33:30.696Z,40.34
2019-03-06T13:36:01.664Z,39.40
2019-03-06T13:38:32.650Z,39.13
2019-03-06T13:41:03.516Z,38.45
2019-03-06T13:43:34.465Z,37.62
2019-03-06T13:46:05.413Z,36.60
2019-03-06T13:48:36.268Z,36.58
2019-03-06T13:51:07.933Z,36.79
2019-03-06T13:53:38.785Z,36.23
2019-03-06T13:56:10.244Z,34.51
2019-03-06T13:58:41.189Z,35.47
2019-03-06T14:01:12.499Z,33.92
2019-03-06T14:03:43.723Z,32.87
2019-03-06T14:06:14.714Z,32.48
2019-03-06T14:09:05.677Z,32.50
2019-03-06T14:11:36.567Z,31.41
2019-03-06T14:14:07.434Z,32.43
2019-03-06T14:16:38.349Z,33.10
2019-03-06T14:19:09.319Z,32.08
2019-03-06T14:21:40.186Z,31.20
2019-03-06T14:24:11.061Z,30.66
2019-03-06T14:26:57.820Z,30.10
2019-03-06T14:29:28.678Z,31.18
2019-03-06T14:32:00.830Z,31.61
2019-03-06T14:34:32.077Z,31.84
2019-03-06T14:37:03.057Z,31.20
2019-03-06T14:39:33.914Z,32.14
2019-03-06T14:42:05.187Z,30.58
2019-03-06T14:44:36.053Z,31.82
2019-03-06T14:47:07.209Z,32.24
2019-03-06T14:49:38.356Z,32.09
2019-03-06T14:52:09.237Z,33.24
2019-03-06T14:54:40.115Z,34.54
2019-03-06T14:57:11.319Z,35.57
2019-03-06T14:59:44.045Z,36.45
2019-03-06T15:02:15.533Z,36.81
2019-03-06T15:04:46.404Z,37.21
2019-03-06T15:07:17.280Z,36.11
2019-03-06T15:09:48.242Z,35.45
2019-03-06T15:12:19.102Z,35.44
2019-03-06T15:14:50.146Z,34.49
2019-03-06T15:17:21.108Z,34.68
2019-03-06T15:19:51.979Z,32.83
2019-03-06T15:22:22.872Z,32.72
2019-03-06T15:24:54.042Z,33.94
2019-03-06T15:27:25.084Z,35.47
2019-03-06T15:29:55.943Z,36.90
2019-03-06T15:32:28.108Z,38.86
2019-03-06T15:34:59.095Z,40.06
2019-03-06T15:37:29.956Z,41.76
2019-03-06T15:40:01.088Z,42.57
2019-03-06T15:42:32.019Z,42.76
2019-03-06T15:45:02.883Z,42.89
2019-03-06T15:47:34.057Z,44.13
2019-03-06T15:50:05.583Z,44.46
2019-03-06T15:52:36.474Z,44.58
2019-03-06T15:55:08.431Z,45.31
2019-03-06T15:57:40.711Z,46.16
2019-03-06T16:00:28.575Z,45.42
2019-03-06T16:02:59.857Z,46.31
2019-03-06T16:05:31.120Z,47.74
2019-03-06T16:08:02.529Z,47.02
2019-03-06T16:10:35.204Z,47.27
2019-03-06T16:13:07.346Z,47.87
2019-03-06T16:15:38.773Z,48.53
2019-03-06T16:18:10.274Z,49.06
2019-03-06T16:20:42.514Z,49.23
2019-03-06T16:23:15.343Z,50.33
2019-03-06T16:25:49.050Z,50.56
2019-03-06T16:28:19.926Z,50.95
2019-03-06T16:30:51.172Z,51.67
2019-03-06T16:33:22.150Z,51.04
2019-03-06T16:35:53.056Z,51.54
2019-03-06T16:38:23.959Z,50.68
2019-03-06T16:40:54.823Z,51.81
2019-03-06T16:43:25.858Z,52.21
2019-03-06T16:45:56.832Z,52.81
2019-03-06T16:48:27.781Z,51.94
2019-03-06T16:50:59.110Z,52.05
2019-03-06T16:53:30.076Z,53.46
2019-03-06T16:56:00.991Z,53.88
2019-03-06T16:58:32.054Z,54.29
2019-03-06T17:01:03.004Z,53.98
2019-03-06T17:03:34.070Z,55.29
2019-03-06T17:06:05.369Z,56.24
2019-03-06T17:08:36.353Z,56.91
2019-03-06T17:11:08.068Z,56.92
2019-03-06T17:13:39.032Z,57.98
2019-03-06T17:16:10.008Z,58.79
2019-03-06T17:18:42.640Z,60.32
2019-03-06T17:21:13.509Z,59.39
2019-03-06T17:23:44.450Z,59.66
2019-03-06T17:26:16.091Z,60.43
2019-03-06T17:28:46.970Z,61.15
2019-03-06T17:31:17.879Z,61.56
2019-03-06T17:33:49.745Z,61.22
2019-03-06T17:36:20.611Z,61.23
2019-03-06T17:38:51.797Z,62.02
2019-03-06T17:41:22.861Z,62.86
2019-03-06T17:43:53.729Z,63.72
2019-03-06T17:46:24.703Z,66.84
2019-03-06T17:48:55.658Z,68.62
2019-03-06T17:51:27.473Z,69.43
2019-03-06T17:53:58.344Z,70.31
2019-03-06T17:56:29.305Z,70.28
2019-03-06T17:59:00.174Z,72.53
2019-03-06T18:01:31.149Z,72.79
2019-03-06T18:04:17.381Z,71.20
2019-03-06T18:06:48.462Z,67.51
2019-03-06T18:09:19.521Z,69.32
2019-03-06T18:11:50.728Z,69.58
2019-03-06T18:14:22.102Z,70.57
2019-03-06T18:16:53.104Z,70.01
2019-03-06T18:19:24.149Z,67.66
2019-03-06T18:21:55.247Z,68.08
2019-03-06T18:24:26.433Z,69.65
2019-03-06T18:26:57.884Z,67.68
2019-03-06T18:29:28.757Z,69.29
2019-03-06T18:32:00.280Z,69.32
2019-03-06T18:34:31.564Z,69.45
2019-03-06T18:37:02.574Z,68.88
2019-03-06T18:39:33.479Z,69.35
2019-03-06T18:42:04.602Z,70.02
2019-03-06T18:44:35.764Z,70.17
2019-03-06T18:47:06.838Z,70.63
2019-03-06T18:49:37.794Z,72.13
2019-03-06T18:52:08.886Z,72.11
2019-03-06T18:54:39.800Z,70.68
2019-03-06T18:57:10.666Z,72.46
2019-03-06T18:59:41.549Z,73.18
2019-03-06T19:02:12.507Z,73.21
2019-03-06T19:04:43.403Z,75.78
2019-03-06T19:07:14.436Z,77.35
2019-03-06T19:09:45.779Z,77.04
2019-03-06T19:12:18.270Z,79.32
2019-03-06T19:14:50.090Z,80.14
2019-03-06T19:17:21.395Z,79.54
2019-03-06T19:19:52.401Z,80.41
2019-03-06T19:22:23.499Z,79.15
2019-03-06T19:24:54.497Z,80.12
2019-03-06T19:27:25.369Z,80.37
2019-03-06T19:29:56.269Z,81.10
2019-03-06T19:32:27.824Z,82.65
2019-03-06T19:35:00.773Z,82.20
2019-03-06T19:37:31.652Z,82.08
2019-03-06T19:40:04.160Z,79.76
2019-03-06T19:42:35.161Z,79.48
2019-03-06T19:45:07.147Z,80.58
2019-03-06T19:47:38.282Z,79.87
2019-03-06T19:50:11.988Z,79.69
2019-03-06T19:52:43.069Z,78.59
2019-03-06T19:55:15.961Z,77.37
2019-03-06T19:57:54.908Z,77.73
2019-03-06T20:00:26.657Z,77.39
2019-03-06T20:02:58.478Z,77.36
2019-03-06T20:05:35.819Z,78.22
2019-03-06T20:08:09.866Z,78.97
2019-03-06T20:10:41.545Z,79.13
2019-03-06T20:13:12.692Z,80.19
2019-03-06T20:15:44.665Z,81.77
2019-03-06T20:18:15.637Z,82.25
2019-03-06T20:20:46.820Z,84.31
2019-03-06T20:23:17.823Z,82.99
2019-03-06T20:25:49.077Z,82.87
2019-03-06T20:28:19.993Z,82.53
2019-03-06T20:30:50.865Z,83.78
2019-03-06T20:33:22.189Z,85.28
2019-03-06T20:35:54.229Z,84.80
2019-03-06T20:38:25.103Z,84.50
2019-03-06T20:40:55.951Z,83.94
2019-03-06T20:43:27.026Z,85.77
2019-03-06T20:45:57.886Z,87.82
2019-03-06T20:48:28.883Z,88.29
2019-03-06T20:50:59.883Z,88.03
2019-03-06T20:53:30.746Z,86.52
2019-03-06T20:56:01.613Z,84.96
2019-03-06T20:58:32.659Z,84.65
2019-03-06T21:01:22.282Z,85.20
2019-03-06T21:04:11.537Z,83.98
2019-03-06T21:07:01.337Z,82.28
2019-03-06T21:09:51.117Z,82.67
2019-03-06T21:12:40.674Z,84.56
2019-03-06T21:15:30.098Z,89.25
2019-03-06T21:18:19.399Z,90.56
2019-03-06T21:21:08.813Z,91.80
2019-03-06T21:23:58.057Z,89.43
2019-03-06T21:26:47.538Z,88.63
2019-03-06T21:29:36.845Z,86.61
2019-03-06T21:32:25.658Z,86.00
2019-03-06T21:35:15.043Z,85.24
2019-03-06T21:38:04.389Z,84.68
2019-03-06T21:40:54.130Z,84.60
2019-03-06T21:43:43.794Z,85.64
2019-03-06T21:46:32.850Z,86.47
2019-03-06T21:49:22.102Z,86.32
2019-03-06T21:52:11.261Z,86.55
2019-03-06T21:55:00.582Z,85.32
2019-03-06T21:57:50.096Z,84.92
2019-03-06T22:00:39.661Z,86.63
2019-03-06T22:03:28.513Z,87.53
2019-03-06T22:06:17.932Z,87.78
2019-03-06T22:09:13.648Z,89.96
2019-03-06T22:12:05.609Z,90.66
2019-03-06T22:14:54.431Z,90.32
2019-03-06T22:17:44.111Z,89.06
2019-03-06T22:20:33.269Z,89.58
2019-03-06T22:23:22.991Z,90.11
2019-03-06T22:26:12.284Z,90.05
2019-03-06T22:29:02.266Z,89.54
2019-03-06T22:31:51.641Z,88.33
2019-03-06T22:34:41.251Z,91.85
2019-03-06T22:37:31.520Z,94.37
2019-03-06T22:40:20.491Z,94.39
2019-03-06T22:43:09.778Z,92.39
2019-03-06T22:45:59.046Z,91.72
2019-03-06T22:48:48.544Z,91.43
2019-03-06T22:51:37.419Z,91.93
2019-03-06T22:54:26.699Z,90.68
2019-03-06T22:57:15.960Z,90.76
2019-03-06T23:00:11.370Z,92.74
2019-03-06T23:03:00.858Z,91.13
2019-03-06T23:05:50.388Z,90.24
2019-03-06T23:08:39.579Z,90.28
2019-03-06T23:11:28.516Z,89.10
2019-03-06T23:14:18.128Z,87.96
2019-03-06T23:17:10.336Z,88.35
2019-03-06T23:19:59.392Z,89.09
2019-03-06T23:22:48.900Z,91.07
2019-03-06T23:25:38.334Z,91.21
2019-03-06T23:28:27.215Z,90.72
2019-03-06T23:31:16.885Z,89.79
2019-03-06T23:34:06.268Z,87.91
2019-03-06T23:36:55.568Z,88.12
2019-03-06T23:39:46.364Z,90.21
2019-03-06T23:42:35.970Z,92.09
2019-03-06T23:45:24.989Z,91.45
2019-03-06T23:48:14.575Z,93.48
2019-03-06T23:51:09.331Z,93.59
2019-03-06T23:53:58.133Z,93.24
2019-03-06T23:56:47.430Z,92.01
2019-03-06T23:59:36.913Z,92.07
